createdAt,value
2018-04-07T00:02:16.703Z,5.20
2018-04-07T00:04:42.733Z,5.10
2018-04-07T00:07:08.688Z,5.10
2018-04-07T00:09:34.701Z,5.10
2018-04-07T00:12:00.661Z,5.10
2018-04-07T00:14:26.687Z,5.00
2018-04-07T00:16:52.665Z,5.00
2018-04-07T00:19:18.662Z,4.90
2018-04-07T00:21:44.677Z,4.80
2018-04-07T00:24:11.436Z,4.80
2018-04-07T00:26:37.403Z,4.70
2018-04-07T00:29:03.391Z,4.80
2018-04-07T00:31:30.506Z,4.80
2018-04-07T00:33:56.522Z,4.80
2018-04-07T00:36:22.530Z,4.80
2018-04-07T00:38:49.242Z,4.80
2018-04-07T00:41:15.222Z,4.70
2018-04-07T00:43:42.038Z,4.70
2018-04-07T00:46:08.029Z,4.70
2018-04-07T00:48:34.004Z,4.80
2018-04-07T00:51:00.014Z,4.70
2018-04-07T00:53:25.989Z,4.60
2018-04-07T00:55:52.070Z,4.50
2018-04-07T00:58:18.041Z,4.60
2018-04-07T01:00:44.054Z,4.50
2018-04-07T01:03:10.033Z,4.50
2018-04-07T01:05:36.090Z,4.50
2018-04-07T01:08:02.852Z,4.60
2018-04-07T01:10:28.854Z,4.60
2018-04-07T01:12:54.879Z,4.60
2018-04-07T01:15:20.917Z,4.50
2018-04-07T01:17:46.941Z,4.60
2018-04-07T01:20:12.918Z,4.60
2018-04-07T01:22:38.913Z,4.60
2018-04-07T01:25:04.927Z,4.70
2018-04-07T01:27:30.911Z,4.70
2018-04-07T01:29:56.873Z,4.80
2018-04-07T01:32:23.629Z,4.90
2018-04-07T01:34:50.381Z,5.00
2018-04-07T01:37:17.085Z,5.00
2018-04-07T01:39:43.053Z,5.00
2018-04-07T01:42:09.037Z,5.00
2018-04-07T01:44:35.016Z,5.10
2018-04-07T01:47:01.025Z,5.10
2018-04-07T01:49:26.994Z,5.20
2018-04-07T01:51:53.091Z,5.30
2018-04-07T01:54:19.105Z,5.30
2018-04-07T01:56:45.053Z,5.20
2018-04-07T01:59:11.049Z,5.30
2018-04-07T02:01:37.816Z,5.40
2018-04-07T02:04:04.537Z,5.40
2018-04-07T02:06:30.533Z,5.40
2018-04-07T02:08:56.494Z,5.50
2018-04-07T02:11:22.517Z,5.40
2018-04-07T02:13:48.485Z,5.50
2018-04-07T02:16:14.462Z,5.40
2018-04-07T02:18:40.498Z,5.40
2018-04-07T02:21:06.526Z,5.50
2018-04-07T02:23:32.524Z,5.40
2018-04-07T02:25:58.518Z,5.50
2018-04-07T02:28:24.528Z,5.50
2018-04-07T02:30:51.225Z,5.60
2018-04-07T02:33:17.242Z,5.50
2018-04-07T02:35:43.315Z,5.50
2018-04-07T02:38:09.279Z,5.60
2018-04-07T02:40:35.230Z,5.60
2018-04-07T02:43:01.234Z,5.60
2018-04-07T02:45:27.244Z,5.60
2018-04-07T02:47:53.233Z,5.70
2018-04-07T02:50:19.934Z,5.60
2018-04-07T02:52:45.949Z,5.60
2018-04-07T02:55:11.935Z,5.70
2018-04-07T02:57:37.944Z,5.60
2018-04-07T03:00:03.890Z,5.70
2018-04-07T03:02:29.853Z,5.80
2018-04-07T03:04:55.846Z,5.80
2018-04-07T03:07:21.869Z,5.90
2018-04-07T03:09:47.865Z,6.00
2018-04-07T03:12:13.915Z,6.00
2018-04-07T03:14:40.632Z,6.00
2018-04-07T03:17:06.589Z,5.90
2018-04-07T03:19:32.581Z,5.90
2018-04-07T03:21:58.645Z,6.00
2018-04-07T03:24:24.602Z,6.00
2018-04-07T03:26:50.621Z,6.00
2018-04-07T03:29:16.587Z,6.10
2018-04-07T03:31:43.343Z,6.00
2018-04-07T03:34:10.044Z,6.00
2018-04-07T03:36:36.046Z,6.00
2018-04-07T03:39:04.911Z,6.00
2018-04-07T03:41:30.886Z,6.00
2018-04-07T03:43:56.893Z,6.10
2018-04-07T03:46:22.906Z,6.10
2018-04-07T03:48:48.871Z,6.10
2018-04-07T03:51:15.621Z,6.10
2018-04-07T03:53:42.358Z,6.10
2018-04-07T03:56:09.078Z,6.10
2018-04-07T03:58:35.093Z,6.10
2018-04-07T04:01:01.088Z,6.10
2018-04-07T04:03:27.037Z,6.20
2018-04-07T04:05:53.820Z,6.20
2018-04-07T04:08:19.812Z,6.20
2018-04-07T04:10:45.773Z,6.20
2018-04-07T04:13:12.521Z,6.30
2018-04-07T04:15:39.234Z,6.30
2018-04-07T04:18:05.207Z,6.20
2018-04-07T04:20:31.964Z,6.30
2018-04-07T04:22:58.669Z,6.40
2018-04-07T04:25:24.711Z,6.30
2018-04-07T04:27:50.754Z,6.30
2018-04-07T04:30:16.758Z,6.30
2018-04-07T04:32:42.706Z,6.30
2018-04-07T04:35:08.721Z,6.30
2018-04-07T04:37:34.709Z,6.30
2018-04-07T04:40:00.701Z,6.30
2018-04-07T04:42:26.685Z,6.30
2018-04-07T04:44:52.701Z,6.30
2018-04-07T04:47:18.701Z,6.20
2018-04-07T04:49:44.661Z,6.20
2018-04-07T04:52:10.676Z,6.20
2018-04-07T04:54:36.630Z,6.10
2018-04-07T04:57:02.599Z,6.10
2018-04-07T04:59:28.633Z,6.10
2018-04-07T05:01:54.606Z,6.00
2018-04-07T05:04:20.637Z,6.00
2018-04-07T05:06:46.613Z,6.00
2018-04-07T05:09:12.569Z,5.90
2018-04-07T05:11:39.321Z,6.00
2018-04-07T05:14:05.293Z,6.00
2018-04-07T05:16:32.031Z,6.00
2018-04-07T05:18:57.991Z,5.90
2018-04-07T05:21:23.983Z,6.00
2018-04-07T05:23:49.974Z,6.10
2018-04-07T05:26:15.922Z,6.10
2018-04-07T05:28:42.517Z,6.10
2018-04-07T05:31:08.514Z,6.10
2018-04-07T05:33:34.456Z,6.00
2018-04-07T05:36:00.482Z,6.10
2018-04-07T05:38:26.450Z,6.10
2018-04-07T05:40:52.417Z,6.30
2018-04-07T05:43:19.153Z,6.30
2018-04-07T05:45:45.105Z,6.30
2018-04-07T05:48:11.828Z,6.50
2018-04-07T05:50:37.888Z,6.50
2018-04-07T05:53:04.578Z,6.60
2018-04-07T05:55:30.566Z,6.60
2018-04-07T05:57:56.535Z,6.70
2018-04-07T06:00:22.545Z,6.80
2018-04-07T06:02:49.281Z,6.90
2018-04-07T06:05:15.270Z,6.90
2018-04-07T06:07:41.270Z,6.90
2018-04-07T06:10:07.997Z,7.10
2018-04-07T06:12:33.989Z,7.10
2018-04-07T06:14:59.963Z,7.20
2018-04-07T06:17:25.973Z,7.40
2018-04-07T06:19:51.958Z,7.40
2018-04-07T06:22:17.921Z,7.50
2018-04-07T06:24:43.936Z,7.60
2018-04-07T06:27:09.930Z,7.70
2018-04-07T06:29:35.893Z,7.80
2018-04-07T06:32:01.926Z,7.90
2018-04-07T06:34:27.890Z,8.00
2018-04-07T06:36:54.666Z,8.20
2018-04-07T06:39:21.174Z,8.10
2018-04-07T06:41:47.125Z,8.20
2018-04-07T06:44:13.862Z,8.30
2018-04-07T06:46:39.837Z,8.30
2018-04-07T06:49:06.697Z,8.40
2018-04-07T06:51:32.653Z,8.40
2018-04-07T06:53:58.678Z,8.50
2018-04-07T06:56:24.689Z,8.50
2018-04-07T06:58:51.458Z,8.70
2018-04-07T07:01:17.453Z,8.70
2018-04-07T07:03:43.496Z,8.80
2018-04-07T07:06:09.474Z,8.80
2018-04-07T07:08:35.482Z,8.90
2018-04-07T07:11:02.190Z,9.10
2018-04-07T07:13:28.171Z,9.10
2018-04-07T07:15:54.900Z,9.20
2018-04-07T07:18:20.936Z,9.20
2018-04-07T07:20:46.898Z,9.30
2018-04-07T07:23:13.684Z,9.40
2018-04-07T07:25:39.653Z,9.40
2018-04-07T07:28:05.645Z,9.50
2018-04-07T07:30:31.637Z,9.60
2018-04-07T07:32:57.683Z,9.70
2018-04-07T07:35:23.649Z,9.80
2018-04-07T07:37:49.654Z,9.90
2018-04-07T07:40:15.704Z,9.80
2018-04-07T07:42:42.494Z,9.90
2018-04-07T07:45:08.474Z,9.90
2018-04-07T07:47:34.436Z,10.00
2018-04-07T07:50:01.184Z,10.20
2018-04-07T07:52:27.929Z,10.30
2018-04-07T07:54:53.881Z,10.30
2018-04-07T07:57:21.348Z,10.40
2018-04-07T07:59:48.055Z,10.60
2018-04-07T08:02:14.090Z,10.60
2018-04-07T08:04:40.070Z,10.70
2018-04-07T08:07:06.809Z,10.80
2018-04-07T08:09:32.797Z,10.80
2018-04-07T08:11:58.773Z,10.80
2018-04-07T08:14:24.762Z,10.80
2018-04-07T08:16:50.745Z,10.90
2018-04-07T08:19:16.741Z,11.10
2018-04-07T08:21:42.832Z,11.20
2018-04-07T08:24:09.534Z,11.20
2018-04-07T08:26:35.498Z,11.20
2018-04-07T08:29:01.553Z,11.30
2018-04-07T08:31:27.517Z,11.40
2018-04-07T08:33:54.234Z,11.50
2018-04-07T08:36:20.230Z,11.50
2018-04-07T08:38:46.205Z,11.60
2018-04-07T08:41:12.289Z,11.70
2018-04-07T08:43:38.288Z,11.80
2018-04-07T08:46:04.238Z,11.90
2018-04-07T08:48:31.050Z,12.10
2018-04-07T08:50:57.050Z,12.00
2018-04-07T08:53:23.094Z,12.20
2018-04-07T08:55:49.102Z,12.30
2018-04-07T08:58:15.785Z,12.40
2018-04-07T09:00:41.797Z,12.30
2018-04-07T09:03:08.930Z,12.60
2018-04-07T09:05:34.917Z,12.60
2018-04-07T09:08:00.943Z,12.70
2018-04-07T09:10:26.878Z,12.80
2018-04-07T09:12:52.901Z,12.90
2018-04-07T09:15:19.650Z,13.20
2018-04-07T09:17:46.397Z,13.30
2018-04-07T09:20:12.389Z,13.30
2018-04-07T09:22:38.390Z,13.40
2018-04-07T09:25:05.092Z,13.50
2018-04-07T09:27:31.094Z,13.50
2018-04-07T09:29:57.065Z,13.60
2018-04-07T09:32:23.033Z,13.60
2018-04-07T09:34:49.812Z,13.90
2018-04-07T09:37:22.686Z,13.90
2018-04-07T09:39:49.390Z,14.10
2018-04-07T09:42:15.494Z,14.10
2018-04-07T09:44:42.201Z,14.20
2018-04-07T09:47:08.165Z,14.20
2018-04-07T09:49:34.167Z,14.30
2018-04-07T09:52:00.129Z,14.50
2018-04-07T09:54:26.186Z,14.50
2018-04-07T09:56:52.912Z,14.80
2018-04-07T09:59:18.865Z,14.80
2018-04-07T10:01:45.595Z,14.90
2018-04-07T10:04:11.557Z,14.90
2018-04-07T10:06:38.294Z,15.10
2018-04-07T10:09:05.209Z,15.10
2018-04-07T10:11:31.198Z,15.20
2018-04-07T10:13:57.181Z,15.30
2018-04-07T10:16:23.181Z,15.40
2018-04-07T10:18:49.923Z,15.60
2018-04-07T10:21:15.916Z,15.60
2018-04-07T10:23:41.873Z,15.70
2018-04-07T10:26:07.876Z,15.80
2018-04-07T10:28:33.902Z,15.90
2018-04-07T10:30:59.857Z,15.80
2018-04-07T10:33:25.955Z,16.00
2018-04-07T10:35:51.976Z,16.10
2018-04-07T10:38:17.968Z,16.30
2018-04-07T10:40:43.954Z,16.30
2018-04-07T10:43:10.683Z,16.40
2018-04-07T10:45:36.682Z,16.40
2018-04-07T10:48:02.681Z,16.50
2018-04-07T10:50:28.624Z,16.70
2018-04-07T10:52:54.782Z,16.80
2018-04-07T10:55:20.754Z,16.80
2018-04-07T10:57:46.802Z,17.00
2018-04-07T11:00:19.830Z,17.20
2018-04-07T11:02:45.802Z,17.20
2018-04-07T11:05:11.801Z,17.30
2018-04-07T11:07:37.788Z,17.40
2018-04-07T11:10:03.800Z,17.50
2018-04-07T11:12:29.763Z,17.60
2018-04-07T11:14:55.771Z,17.60
2018-04-07T11:17:21.802Z,17.60
2018-04-07T11:19:47.785Z,17.60
2018-04-07T11:22:13.751Z,17.60
2018-04-07T11:24:39.722Z,17.70
2018-04-07T11:27:05.718Z,17.80
2018-04-07T11:29:31.738Z,17.80
2018-04-07T11:31:57.750Z,18.00
2018-04-07T11:34:23.730Z,18.10
2018-04-07T11:36:49.691Z,18.10
2018-04-07T11:39:15.690Z,18.30
2018-04-07T11:41:41.637Z,18.40
2018-04-07T11:44:07.635Z,18.40
2018-04-07T11:46:33.603Z,18.50
2018-04-07T11:48:59.566Z,18.60
2018-04-07T11:51:26.319Z,18.60
2018-04-07T11:53:53.045Z,18.70
2018-04-07T11:56:19.058Z,18.70
2018-04-07T11:58:45.026Z,18.80
2018-04-07T12:01:11.832Z,19.10
2018-04-07T12:03:37.782Z,19.10
2018-04-07T12:06:03.729Z,19.10
2018-04-07T12:08:29.724Z,19.30
2018-04-07T12:10:55.735Z,19.40
2018-04-07T12:13:22.447Z,19.60
2018-04-07T12:15:48.483Z,19.60
2018-04-07T12:18:14.439Z,19.80
2018-04-07T12:20:40.442Z,19.90
2018-04-07T12:23:06.444Z,20.10
2018-04-07T12:25:33.145Z,20.40
2018-04-07T12:27:59.128Z,20.30
2018-04-07T12:30:25.892Z,21.30
2018-04-07T12:32:52.680Z,22.30
2018-04-07T12:35:18.714Z,22.20
2018-04-07T12:37:44.678Z,23.70
2018-04-07T12:40:10.670Z,24.80
2018-04-07T12:42:36.697Z,26.30
2018-04-07T12:45:02.655Z,26.80
2018-04-07T12:47:28.657Z,27.10
2018-04-07T12:49:55.437Z,28.60
2018-04-07T12:52:21.488Z,28.50
2018-04-07T12:54:47.445Z,29.50
2018-04-07T12:57:13.454Z,28.40
2018-04-07T12:59:39.434Z,28.40
2018-04-07T13:02:05.408Z,29.90
2018-04-07T13:04:31.422Z,30.00
2018-04-07T13:06:58.154Z,29.60
2018-04-07T13:09:24.183Z,29.60
2018-04-07T13:11:50.206Z,30.00
2018-04-07T13:14:16.200Z,29.80
2018-04-07T13:16:42.960Z,31.30
2018-04-07T13:19:09.010Z,31.20
2018-04-07T13:21:35.081Z,31.00
2018-04-07T13:24:01.101Z,31.30
2018-04-07T13:26:27.081Z,31.90
2018-04-07T13:28:53.062Z,32.60
2018-04-07T13:31:19.084Z,32.80
2018-04-07T13:33:45.050Z,33.50
2018-04-07T13:36:11.058Z,33.80
2018-04-07T13:38:37.049Z,32.50
2018-04-07T13:41:03.022Z,32.60
2018-04-07T13:43:29.761Z,32.90
2018-04-07T13:45:56.465Z,32.50
2018-04-07T13:48:22.453Z,32.50
2018-04-07T13:50:49.221Z,33.50
2018-04-07T13:53:15.189Z,33.40
2018-04-07T13:55:41.201Z,33.00
2018-04-07T13:58:07.192Z,32.80
2018-04-07T14:00:33.211Z,32.90
2018-04-07T14:02:59.909Z,32.90
2018-04-07T14:05:26.709Z,31.90
2018-04-07T14:07:52.729Z,31.80
2018-04-07T14:10:18.726Z,32.30
2018-04-07T14:12:44.718Z,32.90
2018-04-07T14:15:10.680Z,32.60
2018-04-07T14:17:36.794Z,32.70
2018-04-07T14:20:02.746Z,32.60
2018-04-07T14:22:28.751Z,32.00
2018-04-07T14:24:54.771Z,32.20
2018-04-07T14:27:20.773Z,31.00
2018-04-07T14:29:46.734Z,30.80
2018-04-07T14:32:13.470Z,30.60
2018-04-07T14:34:40.302Z,30.80
2018-04-07T14:37:06.392Z,30.80
2018-04-07T14:39:32.381Z,31.30
2018-04-07T14:41:58.477Z,30.90
2018-04-07T14:44:24.479Z,30.70
2018-04-07T14:46:51.194Z,31.20
2018-04-07T14:49:17.183Z,31.20
2018-04-07T14:51:43.180Z,30.00
2018-04-07T14:54:09.214Z,29.50
2018-04-07T14:56:35.194Z,28.90
2018-04-07T14:59:01.959Z,27.80
2018-04-07T15:01:27.921Z,27.80
2018-04-07T15:03:53.926Z,27.50
2018-04-07T15:06:19.929Z,27.50
2018-04-07T15:08:45.937Z,27.60
2018-04-07T15:11:11.897Z,27.30
2018-04-07T15:13:37.900Z,27.10
2018-04-07T15:16:03.914Z,26.40
2018-04-07T15:18:29.916Z,26.30
2018-04-07T15:20:55.946Z,26.10
2018-04-07T15:23:21.921Z,25.70
2018-04-07T15:25:47.924Z,25.40
2018-04-07T15:28:13.965Z,25.40
2018-04-07T15:30:39.949Z,25.20
2018-04-07T15:33:05.954Z,24.90
2018-04-07T15:35:32.716Z,24.80
2018-04-07T15:37:58.723Z,24.80
2018-04-07T15:40:24.720Z,25.10
2018-04-07T15:42:50.726Z,24.50
2018-04-07T15:45:17.443Z,24.50
2018-04-07T15:47:43.441Z,24.50
2018-04-07T15:50:09.485Z,24.60
2018-04-07T15:52:35.443Z,24.60
2018-04-07T15:55:01.436Z,24.60
2018-04-07T15:57:27.429Z,24.70
2018-04-07T15:59:53.442Z,24.70
2018-04-07T16:02:19.445Z,24.60
2018-04-07T16:04:45.428Z,24.50
2018-04-07T16:07:11.433Z,24.20
2018-04-07T16:09:37.477Z,24.10
2018-04-07T16:12:03.450Z,23.90
2018-04-07T16:14:29.462Z,24.10
2018-04-07T16:16:55.513Z,23.80
2018-04-07T16:19:21.526Z,23.80
2018-04-07T16:21:47.581Z,23.70
2018-04-07T16:24:13.598Z,23.60
2018-04-07T16:26:39.589Z,23.30
2018-04-07T16:29:05.594Z,23.50
2018-04-07T16:31:31.587Z,23.60
2018-04-07T16:33:57.584Z,23.40
2018-04-07T16:36:25.165Z,23.10
2018-04-07T16:38:51.134Z,23.10
2018-04-07T16:41:17.094Z,23.10
2018-04-07T16:43:43.098Z,23.10
2018-04-07T16:46:09.095Z,22.70
2018-04-07T16:48:35.058Z,22.90
2018-04-07T16:51:01.809Z,22.50
2018-04-07T16:53:28.557Z,22.50
2018-04-07T16:55:54.559Z,22.50
2018-04-07T16:58:20.573Z,22.40
2018-04-07T17:00:46.529Z,22.40
2018-04-07T17:03:12.557Z,22.30
2018-04-07T17:05:38.558Z,22.20
2018-04-07T17:08:05.267Z,22.00
2018-04-07T17:10:31.268Z,22.00
2018-04-07T17:13:04.136Z,21.70
2018-04-07T17:15:30.885Z,21.40
2018-04-07T17:17:57.605Z,21.40
2018-04-07T17:20:23.676Z,21.40
2018-04-07T17:22:50.391Z,21.10
2018-04-07T17:25:16.353Z,21.10
2018-04-07T17:27:42.348Z,20.70
2018-04-07T17:30:08.302Z,20.70
2018-04-07T17:32:34.305Z,20.60
2018-04-07T17:35:00.269Z,20.50
2018-04-07T17:37:26.296Z,20.40
2018-04-07T17:39:52.313Z,20.30
2018-04-07T17:42:18.281Z,20.20
2018-04-07T17:44:44.265Z,20.10
2018-04-07T17:47:10.978Z,19.90
2018-04-07T17:49:43.732Z,19.90
2018-04-07T17:52:02.999Z,19.70
2018-04-07T17:54:29.006Z,19.50
2018-04-07T17:56:55.031Z,19.40
2018-04-07T17:59:21.029Z,19.10
2018-04-07T18:01:47.034Z,19.00
2018-04-07T18:04:13.738Z,18.90
2018-04-07T18:06:39.771Z,18.90
2018-04-07T18:09:05.721Z,18.90
2018-04-07T18:11:31.726Z,18.90
2018-04-07T18:13:57.717Z,18.80
2018-04-07T18:16:23.761Z,18.60
2018-04-07T18:18:49.749Z,18.50
2018-04-07T18:21:15.718Z,18.40
2018-04-07T18:23:41.718Z,18.40
2018-04-07T18:26:07.714Z,18.40
2018-04-07T18:28:34.468Z,18.30
2018-04-07T18:31:01.170Z,18.20
2018-04-07T18:33:27.391Z,18.10
2018-04-07T18:35:54.109Z,18.00
2018-04-07T18:38:20.878Z,17.90
2018-04-07T18:40:47.613Z,17.80
2018-04-07T18:43:13.616Z,17.80
2018-04-07T18:45:39.622Z,17.70
2018-04-07T18:48:05.606Z,17.60
2018-04-07T18:50:32.343Z,17.70
2018-04-07T18:52:58.344Z,17.70
2018-04-07T18:55:24.330Z,17.60
2018-04-07T18:57:50.325Z,17.50
2018-04-07T19:00:16.290Z,17.50
2018-04-07T19:02:42.329Z,17.20
2018-04-07T19:05:08.330Z,17.30
2018-04-07T19:07:34.318Z,17.30
2018-04-07T19:10:01.055Z,17.20
2018-04-07T19:12:27.078Z,17.20
2018-04-07T19:14:53.101Z,17.10
2018-04-07T19:17:19.108Z,17.00
2018-04-07T19:19:45.807Z,17.00
2018-04-07T19:22:11.804Z,16.90
2018-04-07T19:24:37.792Z,16.90
2018-04-07T19:27:03.797Z,16.80
2018-04-07T19:29:29.753Z,16.70
2018-04-07T19:31:55.854Z,16.70
2018-04-07T19:34:21.867Z,16.70
2018-04-07T19:36:48.604Z,16.60
2018-04-07T19:39:14.565Z,16.60
2018-04-07T19:41:41.314Z,16.50
2018-04-07T19:44:08.038Z,16.40
2018-04-07T19:46:33.994Z,16.40
2018-04-07T19:48:59.993Z,16.50
2018-04-07T19:51:25.961Z,16.40
2018-04-07T19:53:51.921Z,16.40
2018-04-07T19:56:17.922Z,16.40
2018-04-07T19:58:43.898Z,16.20
2018-04-07T20:01:10.741Z,16.30
2018-04-07T20:03:37.433Z,16.20
2018-04-07T20:06:03.391Z,16.20
2018-04-07T20:08:29.387Z,16.10
2018-04-07T20:10:55.361Z,16.00
2018-04-07T20:13:21.354Z,15.90
2018-04-07T20:15:47.307Z,16.00
2018-04-07T20:18:14.246Z,16.00
2018-04-07T20:20:40.993Z,15.90
2018-04-07T20:23:07.706Z,15.90
2018-04-07T20:25:33.709Z,15.90
2018-04-07T20:27:59.653Z,15.80
2018-04-07T20:30:25.630Z,15.80
2018-04-07T20:32:51.628Z,15.70
2018-04-07T20:35:17.594Z,15.70
2018-04-07T20:37:43.601Z,15.60
2018-04-07T20:40:09.601Z,15.50
2018-04-07T20:42:36.985Z,15.40
2018-04-07T20:45:02.966Z,15.40
2018-04-07T20:47:28.925Z,15.40
2018-04-07T20:49:54.927Z,15.30
2018-04-07T20:52:20.876Z,15.30
2018-04-07T20:54:46.890Z,15.30
2018-04-07T20:57:12.858Z,15.20
2018-04-07T20:59:38.842Z,15.20
2018-04-07T21:02:04.821Z,15.20
2018-04-07T21:04:30.795Z,15.10
2018-04-07T21:06:57.561Z,15.00
2018-04-07T21:09:23.527Z,15.00
2018-04-07T21:11:49.534Z,15.00
2018-04-07T21:14:15.494Z,14.90
2018-04-07T21:16:41.486Z,14.90
2018-04-07T21:19:08.185Z,14.90
2018-04-07T21:21:34.993Z,14.80
2018-04-07T21:24:01.679Z,14.80
2018-04-07T21:26:27.668Z,14.70
2018-04-07T21:28:54.383Z,14.70
2018-04-07T21:31:20.342Z,14.60
2018-04-07T21:33:46.340Z,14.70
2018-04-07T21:36:13.074Z,14.60
2018-04-07T21:38:39.138Z,14.50
2018-04-07T21:41:05.130Z,14.50
2018-04-07T21:43:31.089Z,14.30
2018-04-07T21:45:57.111Z,14.40
2018-04-07T21:48:23.845Z,14.40
2018-04-07T21:50:49.841Z,14.40
2018-04-07T21:53:15.837Z,14.40
2018-04-07T21:55:42.554Z,14.30
2018-04-07T21:58:08.568Z,14.30
2018-04-07T22:00:34.523Z,14.30
2018-04-07T22:03:00.512Z,14.20
2018-04-07T22:05:26.521Z,14.20
2018-04-07T22:07:52.545Z,14.20
2018-04-07T22:10:18.533Z,14.20
2018-04-07T22:12:44.520Z,14.00
2018-04-07T22:15:10.522Z,14.10
2018-04-07T22:17:36.518Z,14.10
2018-04-07T22:20:03.253Z,14.00
2018-04-07T22:22:29.221Z,14.00
2018-04-07T22:24:55.200Z,14.10
2018-04-07T22:27:21.182Z,14.10
2018-04-07T22:29:47.897Z,14.00
2018-04-07T22:32:20.857Z,13.90
2018-04-07T22:34:46.826Z,13.90
2018-04-07T22:37:12.834Z,13.80
2018-04-07T22:39:38.810Z,13.80
2018-04-07T22:42:04.798Z,13.80
2018-04-07T22:44:30.813Z,13.70
2018-04-07T22:46:57.545Z,13.70
2018-04-07T22:49:23.561Z,13.70
2018-04-07T22:51:49.524Z,13.60
2018-04-07T22:54:15.510Z,13.60
2018-04-07T22:56:41.476Z,13.60
2018-04-07T22:59:07.457Z,13.50
2018-04-07T23:01:34.150Z,13.50
2018-04-07T23:04:00.145Z,13.50
2018-04-07T23:06:26.137Z,13.50
2018-04-07T23:08:52.965Z,13.40
2018-04-07T23:11:18.977Z,13.40
2018-04-07T23:13:44.955Z,13.30
2018-04-07T23:16:10.953Z,13.30
2018-04-07T23:18:36.921Z,13.10
2018-04-07T23:21:02.901Z,13.10
2018-04-07T23:23:29.606Z,12.90
2018-04-07T23:25:55.594Z,12.90
2018-04-07T23:28:22.333Z,13.00
2018-04-07T23:30:48.285Z,12.90
2018-04-07T23:33:15.034Z,12.90
2018-04-07T23:35:41.737Z,12.90
2018-04-07T23:38:07.757Z,12.80
2018-04-07T23:40:33.733Z,12.90
2018-04-07T23:42:59.697Z,12.90
2018-04-07T23:45:26.472Z,12.70
2018-04-07T23:47:52.451Z,12.70
2018-04-07T23:50:18.457Z,12.50
2018-04-07T23:52:44.401Z,12.60
2018-04-07T23:55:10.397Z,12.60
2018-04-07T23:57:37.136Z,12.60
